Time;durP1;ratioP1;P1;durP2;ratioP2;P2;SDS_P1;SDS_P2;PMS_P1;PMS_P2;Temp;Humidity;BMP_temperature;BMP_pressure;BME280_temperature;BME280_humidity;BME280_pressure;Samples;Min_cycle;Max_cycle;Signal;HPM_P1;HPM_P2
2021/05/06 00:01:20;;;;;;;2.30;1.40;;;;;;;;;;5093942;28;20537;-68
2021/05/06 00:04:23;;;;;;;4.22;1.55;;;;;;;;;;5081809;28;20036;-67
2021/05/06 00:07:13;;;;;;;2.15;1.30;;;;;;;;;;5094139;28;20020;-68
2021/05/06 00:34:02;;;;;;;5.65;2.10;;;;;;;;;;5095290;28;20026;-68
2021/05/06 00:36:28;;;;;;;4.35;1.23;;;;;;;;;;5094429;28;20012;-68
2021/05/06 00:38:59;;;;;;;4.30;1.60;;;;;;;;;;5094537;28;20028;-68
2021/05/06 00:41:40;;;;;;;1.98;1.30;;;;;;;;;;5077414;28;20024;-68
2021/05/06 00:45:03;;;;;;;3.35;1.48;;;;;;;;;;5079548;28;20043;-68
2021/05/06 00:58:35;;;;;;;3.58;1.70;;;;;;;;;;5095870;28;20490;-68
2021/05/06 01:01:12;;;;;;;2.42;1.60;;;;;;;;;;5093198;28;20546;-68
2021/05/06 01:06:21;;;;;;;3.33;1.50;;;;;;;;;;5094280;28;20028;-68
2021/05/06 01:08:54;;;;;;;3.40;1.52;;;;;;;;;;5093873;28;20431;-67
2021/05/06 01:11:32;;;;;;;6.47;1.80;;;;;;;;;;5092969;28;20054;-68
2021/05/06 01:14:01;;;;;;;2.53;1.50;;;;;;;;;;5077959;28;20027;-68
2021/05/06 01:16:27;;;;;;;;;;;;;;;;;;5094175;28;20016;-68
2021/05/06 01:18:53;;;;;;;1.98;1.48;;;;;;;;;;5093766;28;20041;-67
2021/05/06 01:21:19;;;;;;;1.55;1.35;;;;;;;;;;5076689;28;20013;-68
2021/05/06 01:23:46;;;;;;;3.80;1.30;;;;;;;;;;5093321;28;20019;-68
2021/05/06 01:26:16;;;;;;;1.50;1.40;;;;;;;;;;5093610;28;20048;-67
2021/05/06 01:28:45;;;;;;;4.75;1.50;;;;;;;;;;5092979;28;20058;-68
2021/05/06 01:31:20;;;;;;;4.20;1.58;;;;;;;;;;5093530;28;20024;-67
2021/05/06 01:33:53;;;;;;;2.63;1.50;;;;;;;;;;5093313;28;20085;-68
2021/05/06 01:36:24;;;;;;;5.35;1.75;;;;;;;;;;5093360;28;20537;-68
2021/05/06 01:39:06;;;;;;;3.00;1.42;;;;;;;;;;5077221;28;20028;-68
2021/05/06 01:41:46;;;;;;;2.75;1.50;;;;;;;;;;5092194;28;20506;-68
2021/05/06 01:47:09;;;;;;;4.05;1.42;;;;;;;;;;5093912;28;20089;-68
2021/05/06 01:50:06;;;;;;;4.20;1.73;;;;;;;;;;5094139;28;20028;-67
2021/05/06 02:00:51;;;;;;;1.58;1.42;;;;;;;;;;5094467;28;20027;-68
2021/05/06 02:03:17;;;;;;;3.08;1.50;;;;;;;;;;5092553;28;20071;-68
2021/05/06 02:05:42;;;;;;;3.10;1.50;;;;;;;;;;5075875;28;20016;-68
2021/05/06 02:08:09;;;;;;;2.28;1.30;;;;;;;;;;5075855;28;20564;-68
2021/05/06 02:10:35;;;;;;;4.72;1.50;;;;;;;;;;5075146;28;20043;-68
2021/05/06 02:13:01;;;;;;;4.88;1.60;;;;;;;;;;5092841;28;20388;-68
2021/05/06 02:15:36;;;;;;;3.85;1.50;;;;;;;;;;5075518;28;20023;-68
2021/05/06 02:18:02;;;;;;;3.60;1.50;;;;;;;;;;5092518;28;20020;-68
2021/05/06 02:20:28;;;;;;;6.28;1.85;;;;;;;;;;5092450;28;20020;-67
2021/05/06 02:22:53;;;;;;;4.45;1.88;;;;;;;;;;5075537;28;20027;-68
2021/05/06 02:25:20;;;;;;;4.53;1.70;;;;;;;;;;5075443;28;20020;-68
2021/05/06 02:27:46;;;;;;;2.88;1.42;;;;;;;;;;5074977;28;20130;-68
2021/05/06 02:30:12;;;;;;;4.82;1.60;;;;;;;;;;5092474;28;20396;-68
2021/05/06 02:32:38;;;;;;;3.33;1.50;;;;;;;;;;5075178;28;20016;-69
2021/05/06 02:35:05;;;;;;;6.47;1.85;;;;;;;;;;5092366;28;20446;-68
2021/05/06 02:37:31;;;;;;;3.95;1.90;;;;;;;;;;5091806;28;20023;-68
2021/05/06 02:39:57;;;;;;;4.90;1.50;;;;;;;;;;5091841;28;20065;-68
2021/05/06 02:42:23;;;;;;;4.25;1.83;;;;;;;;;;5092210;28;20019;-67
2021/05/06 02:44:49;;;;;;;2.78;1.48;;;;;;;;;;5092176;28;20537;-67
2021/05/06 02:47:15;;;;;;;3.83;1.75;;;;;;;;;;5092841;28;20016;-68
2021/05/06 02:49:46;;;;;;;4.55;1.55;;;;;;;;;;5091778;28;20028;-67
2021/05/06 02:55:05;;;;;;;5.97;1.77;;;;;;;;;;5093282;28;20067;-68
2021/05/06 03:03:01;;;;;;;7.82;2.58;;;;;;;;;;5093190;28;20023;-68
2021/05/06 03:05:30;;;;;;;4.93;1.80;;;;;;;;;;5074676;28;20016;-68
2021/05/06 03:08:03;;;;;;;;;;;;;;;;;;5092160;28;20028;-67
2021/05/06 03:13:49;;;;;;;4.78;1.80;;;;;;;;;;5092772;28;20411;-67
2021/05/06 03:24:23;;;;;;;7.65;2.20;;;;;;;;;;5092114;28;20023;-67
2021/05/06 03:26:49;;;;;;;4.75;1.90;;;;;;;;;;5091166;28;20115;-67
2021/05/06 03:29:20;;;;;;;4.93;2.05;;;;;;;;;;5090698;28;20066;-68
2021/05/06 04:03:19;;;;;;;7.22;2.10;;;;;;;;;;5092633;28;20023;-67
2021/05/06 04:14:20;;;;;;;4.00;2.47;;;;;;;;;;5092332;28;20078;-67
2021/05/06 04:19:04;;;;;;;7.57;3.60;;;;;;;;;;5091431;28;20032;-67
2021/05/06 04:21:41;;;;;;;7.15;2.85;;;;;;;;;;5075702;28;20469;-68
2021/05/06 04:27:03;;;;;;;8.25;1.65;;;;;;;;;;5092149;28;20035;-67
2021/05/06 04:37:45;;;;;;;4.07;1.67;;;;;;;;;;5092368;28;20026;-68
2021/05/06 04:40:21;;;;;;;2.17;1.60;;;;;;;;;;5090066;28;20082;-68
2021/05/06 04:53:39;;;;;;;3.03;1.38;;;;;;;;;;5094393;28;20461;-67
2021/05/06 04:56:19;;;;;;;4.13;1.70;;;;;;;;;;5094245;28;20028;-68
2021/05/06 04:59:04;;;;;;;1.58;1.25;;;;;;;;;;5079429;28;20024;-68
2021/05/06 05:10:04;;;;;;;3.50;1.30;;;;;;;;;;5093130;28;20069;-68
2021/05/06 05:17:40;;;;;;;2.22;1.20;;;;;;;;;;5095370;28;20081;-67
2021/05/06 05:20:50;;;;;;;4.78;1.23;;;;;;;;;;5095231;28;20023;-67
2021/05/06 05:23:26;;;;;;;2.00;1.00;;;;;;;;;;5077699;28;20078;-67
2021/05/06 05:26:01;;;;;;;2.20;1.10;;;;;;;;;;5093997;28;20365;-68
2021/05/06 05:28:26;;;;;;;3.08;1.38;;;;;;;;;;5093003;28;20052;-67
2021/05/06 05:30:53;;;;;;;5.55;1.33;;;;;;;;;;5076828;28;20023;-67
2021/05/06 05:33:22;;;;;;;3.00;1.00;;;;;;;;;;5093397;28;20069;-67
2021/05/06 05:38:41;;;;;;;4.32;0.90;;;;;;;;;;5093960;28;20074;-68
2021/05/06 05:44:08;;;;;;;2.13;1.13;;;;;;;;;;5094601;28;20058;-67
2021/05/06 05:47:08;;;;;;;3.92;1.23;;;;;;;;;;5078753;28;20027;-67
2021/05/06 05:55:00;;;;;;;6.43;1.33;;;;;;;;;;5094743;28;20438;-67
2021/05/06 05:57:26;;;;;;;1.80;1.15;;;;;;;;;;5094306;28;20028;-68
2021/05/06 05:59:54;;;;;;;3.65;1.00;;;;;;;;;;5092450;28;20031;-67
2021/05/06 06:02:20;;;;;;;4.53;1.10;;;;;;;;;;5086135;28;20053;-73
2021/05/06 06:04:46;;;;;;;3.20;0.88;;;;;;;;;;5051548;28;20463;-71
2021/05/06 06:07:11;;;;;;;4.60;1.30;;;;;;;;;;5057338;28;20120;-70
2021/05/06 06:09:37;;;;;;;4.00;1.10;;;;;;;;;;5078110;28;20127;-70
2021/05/06 06:12:02;;;;;;;3.88;1.20;;;;;;;;;;5078403;28;20393;-72
2021/05/06 06:14:37;;;;;;;10.15;1.10;;;;;;;;;;5062488;28;20026;-71
2021/05/06 06:17:03;;;;;;;10.45;1.40;;;;;;;;;;5059809;28;20421;-70
2021/05/06 06:19:32;;;;;;;3.08;1.30;;;;;;;;;;5067646;28;20123;-69
2021/05/06 06:22:04;;;;;;;2.05;1.30;;;;;;;;;;5063758;28;20119;-69
2021/05/06 06:24:30;;;;;;;1.70;0.90;;;;;;;;;;5052948;28;20039;-69
2021/05/06 06:26:55;;;;;;;2.67;1.15;;;;;;;;;;5074315;28;20020;-71
2021/05/06 06:29:27;;;;;;;1.60;1.00;;;;;;;;;;5060596;28;20098;-70
2021/05/06 06:31:52;;;;;;;2.40;1.10;;;;;;;;;;5060766;28;20052;-69
2021/05/06 06:34:18;;;;;;;3.40;1.00;;;;;;;;;;5058226;28;20402;-70
2021/05/06 06:36:45;;;;;;;5.88;0.90;;;;;;;;;;5044471;28;20115;-69
2021/05/06 06:39:12;;;;;;;1.95;0.90;;;;;;;;;;5039099;28;20064;-69
2021/05/06 06:41:37;;;;;;;3.10;1.20;;;;;;;;;;5050054;28;20025;-70
2021/05/06 06:44:03;;;;;;;1.45;0.85;;;;;;;;;;5068557;28;20377;-72
2021/05/06 06:46:29;;;;;;;12.18;1.23;;;;;;;;;;5080021;28;20036;-72
2021/05/06 06:48:54;;;;;;;26.33;1.85;;;;;;;;;;5053751;28;20051;-73
2021/05/06 06:51:20;;;;;;;26.60;2.65;;;;;;;;;;5072196;28;20021;-72
2021/05/06 06:53:45;;;;;;;2.05;1.00;;;;;;;;;;5074328;28;20027;-69
2021/05/06 06:56:12;;;;;;;2.33;1.13;;;;;;;;;;5064631;28;20401;-69
2021/05/06 06:58:41;;;;;;;3.95;1.05;;;;;;;;;;5066880;28;20033;-68
2021/05/06 07:01:09;;;;;;;2.50;0.85;;;;;;;;;;5069365;28;20028;-69
2021/05/06 07:03:35;;;;;;;0.70;0.70;;;;;;;;;;5054273;28;20050;-68
2021/05/06 07:06:01;;;;;;;3.45;1.23;;;;;;;;;;5050857;28;20025;-67
2021/05/06 07:08:30;;;;;;;1.77;0.80;;;;;;;;;;5050418;28;20017;-69
2021/05/06 07:10:56;;;;;;;1.52;1.02;;;;;;;;;;5049699;28;20087;-68
2021/05/06 07:13:22;;;;;;;8.25;2.60;;;;;;;;;;5041849;28;20028;-68
2021/05/06 07:15:49;;;;;;;2.05;0.98;;;;;;;;;;5067632;28;20465;-69
2021/05/06 07:18:15;;;;;;;1.60;0.82;;;;;;;;;;5074858;28;20024;-68
2021/05/06 07:20:45;;;;;;;1.52;0.63;;;;;;;;;;5069349;28;20488;-71
2021/05/06 07:23:11;;;;;;;1.58;0.70;;;;;;;;;;5072877;28;20044;-69
2021/05/06 07:25:37;;;;;;;8.25;1.25;;;;;;;;;;5076755;28;20016;-68
2021/05/06 07:28:17;;;;;;;1.00;0.73;;;;;;;;;;5073379;28;20102;-68
2021/05/06 07:30:44;;;;;;;1.42;0.90;;;;;;;;;;5071362;28;20043;-69
2021/05/06 07:33:10;;;;;;;39.72;2.80;;;;;;;;;;5079779;28;20012;-69
2021/05/06 07:35:36;;;;;;;1.13;0.65;;;;;;;;;;5058592;28;20023;-69
2021/05/06 07:38:02;;;;;;;3.33;0.88;;;;;;;;;;5076013;28;20039;-68
2021/05/06 07:40:27;;;;;;;2.58;0.90;;;;;;;;;;5078776;28;20012;-68
2021/05/06 07:42:53;;;;;;;1.02;0.65;;;;;;;;;;5074462;28;20099;-69
2021/05/06 07:45:19;;;;;;;1.48;0.95;;;;;;;;;;5072809;28;20381;-70
2021/05/06 07:47:45;;;;;;;2.78;0.73;;;;;;;;;;5037362;28;20021;-66
2021/05/06 07:50:11;;;;;;;6.43;1.13;;;;;;;;;;5052360;28;20043;-65
2021/05/06 07:52:37;;;;;;;2.10;0.90;;;;;;;;;;5068752;28;20492;-67
2021/05/06 07:55:03;;;;;;;195.27;20.13;;;;;;;;;;5067645;28;20044;-67
2021/05/06 07:57:28;;;;;;;26.23;2.55;;;;;;;;;;5059926;28;20060;-64
2021/05/06 07:59:54;;;;;;;1.52;0.73;;;;;;;;;;5074031;28;20027;-64
2021/05/06 08:02:21;;;;;;;1.77;0.88;;;;;;;;;;5058393;28;20081;-65
2021/05/06 08:04:46;;;;;;;4.78;0.85;;;;;;;;;;5075807;28;20059;-63
2021/05/06 08:07:12;;;;;;;3.13;0.90;;;;;;;;;;5063451;28;20376;-63
2021/05/06 08:09:37;;;;;;;1.23;0.60;;;;;;;;;;5078123;28;20028;-63
2021/05/06 08:12:03;;;;;;;1.10;0.73;;;;;;;;;;5063518;28;20600;-63
2021/05/06 08:14:29;;;;;;;3.03;1.25;;;;;;;;;;5069735;28;20518;-63
2021/05/06 08:16:55;;;;;;;3.40;0.80;;;;;;;;;;5070526;28;20020;-64
2021/05/06 08:19:20;;;;;;;2.85;0.70;;;;;;;;;;5068185;28;20016;-64
2021/05/06 08:21:46;;;;;;;1.60;0.70;;;;;;;;;;5070327;28;20420;-64
2021/05/06 08:24:12;;;;;;;1.73;0.57;;;;;;;;;;5080662;28;20473;-64
2021/05/06 08:26:37;;;;;;;1.55;0.90;;;;;;;;;;5062194;28;20059;-64
2021/05/06 08:29:04;;;;;;;2.38;0.90;;;;;;;;;;5075922;28;20052;-66
2021/05/06 08:31:30;;;;;;;3.40;0.90;;;;;;;;;;5076138;28;20036;-64
2021/05/06 08:33:56;;;;;;;5.40;1.13;;;;;;;;;;5072325;28;20023;-65
2021/05/06 08:36:22;;;;;;;3.28;0.88;;;;;;;;;;5089548;28;20106;-64
2021/05/06 08:38:47;;;;;;;2.28;1.00;;;;;;;;;;5082208;28;20576;-64
2021/05/06 08:41:13;;;;;;;9.02;0.95;;;;;;;;;;5045746;28;20025;-63
2021/05/06 08:43:40;;;;;;;1.67;0.85;;;;;;;;;;5051811;28;20065;-66
2021/05/06 08:46:06;;;;;;;3.28;1.00;;;;;;;;;;5060535;28;20027;-65
2021/05/06 08:48:32;;;;;;;1.95;0.82;;;;;;;;;;5061032;28;20024;-65
2021/05/06 08:50:57;;;;;;;6.65;1.17;;;;;;;;;;5074436;28;20025;-66
2021/05/06 08:53:23;;;;;;;2.53;1.13;;;;;;;;;;5056070;28;20158;-64
2021/05/06 08:55:49;;;;;;;1.73;0.93;;;;;;;;;;5079638;28;20097;-66
2021/05/06 08:58:15;;;;;;;1.63;0.80;;;;;;;;;;5070096;28;20012;-64
2021/05/06 09:00:41;;;;;;;2.83;0.88;;;;;;;;;;5081444;28;20131;-64
2021/05/06 09:03:06;;;;;;;0.65;0.50;;;;;;;;;;5078835;28;20078;-65
2021/05/06 09:05:35;;;;;;;1.52;0.70;;;;;;;;;;5088922;28;20045;-66
2021/05/06 09:08:01;;;;;;;2.72;0.80;;;;;;;;;;5060363;28;20107;-64
2021/05/06 09:10:34;;;;;;;1.00;0.80;;;;;;;;;;5066967;28;20178;-66
2021/05/06 09:12:59;;;;;;;3.33;1.10;;;;;;;;;;5084641;28;20400;-66
2021/05/06 09:15:26;;;;;;;8.82;1.15;;;;;;;;;;5092165;28;20016;-65
2021/05/06 09:17:53;;;;;;;4.35;0.90;;;;;;;;;;5058114;28;20549;-66
2021/05/06 09:20:20;;;;;;;2.67;1.20;;;;;;;;;;5086709;28;20082;-65
2021/05/06 09:22:47;;;;;;;6.00;0.98;;;;;;;;;;5071432;28;20441;-64
2021/05/06 09:25:31;;;;;;;2.92;1.40;;;;;;;;;;5078705;28;20055;-65
2021/05/06 09:28:03;;;;;;;3.58;0.90;;;;;;;;;;5058838;28;20134;-65
2021/05/06 09:30:29;;;;;;;4.57;1.33;;;;;;;;;;5083530;28;20391;-64
2021/05/06 09:33:01;;;;;;;1.52;0.80;;;;;;;;;;5066057;28;20016;-64
2021/05/06 09:35:27;;;;;;;8.07;1.83;;;;;;;;;;5071862;28;20043;-65
2021/05/06 09:37:52;;;;;;;29.13;7.55;;;;;;;;;;5071977;28;20064;-64
2021/05/06 09:40:18;;;;;;;1.20;0.82;;;;;;;;;;5078139;28;20476;-63
2021/05/06 09:42:47;;;;;;;1.92;0.90;;;;;;;;;;5081058;28;20020;-64
2021/05/06 09:45:20;;;;;;;4.10;1.02;;;;;;;;;;5063766;28;20028;-63
2021/05/06 09:48:05;;;;;;;5.60;1.13;;;;;;;;;;5084193;28;20039;-63
2021/05/06 09:50:31;;;;;;;2.85;1.00;;;;;;;;;;5074209;28;20420;-64
2021/05/06 09:52:56;;;;;;;8.25;1.13;;;;;;;;;;5069605;28;20028;-64
2021/05/06 09:55:22;;;;;;;3.88;0.90;;;;;;;;;;5071952;28;20040;-64
2021/05/06 09:57:48;;;;;;;5.68;1.00;;;;;;;;;;5082528;28;20070;-63
2021/05/06 10:00:15;;;;;;;5.47;1.02;;;;;;;;;;5078214;28;20507;-63
2021/05/06 10:02:40;;;;;;;3.38;0.90;;;;;;;;;;5062849;28;20461;-64
2021/05/06 10:05:07;;;;;;;4.68;1.45;;;;;;;;;;5082084;28;20031;-65
2021/05/06 10:07:33;;;;;;;1.77;1.23;;;;;;;;;;5086989;28;20061;-64
2021/05/06 10:10:00;;;;;;;3.95;1.10;;;;;;;;;;5090204;28;20040;-65
2021/05/06 10:12:27;;;;;;;3.58;1.08;;;;;;;;;;5081001;28;20020;-65
2021/05/06 10:14:54;;;;;;;3.35;1.30;;;;;;;;;;5081425;28;20043;-65
2021/05/06 10:17:21;;;;;;;4.00;1.10;;;;;;;;;;5061183;28;20027;-65
2021/05/06 10:19:46;;;;;;;59.97;4.00;;;;;;;;;;5085711;28;20016;-65
2021/05/06 10:22:13;;;;;;;2.13;1.08;;;;;;;;;;5072801;28;20035;-64
2021/05/06 10:24:40;;;;;;;3.72;1.55;;;;;;;;;;5085562;28;20062;-64
2021/05/06 10:27:09;;;;;;;3.75;1.00;;;;;;;;;;5083826;28;20090;-65
2021/05/06 10:29:35;;;;;;;7.35;1.90;;;;;;;;;;5088720;28;20032;-64
2021/05/06 10:32:01;;;;;;;3.45;1.20;;;;;;;;;;5068534;28;20034;-64
2021/05/06 10:34:26;;;;;;;6.10;1.55;;;;;;;;;;5068182;28;20097;-64
2021/05/06 10:36:52;;;;;;;5.78;1.15;;;;;;;;;;5067669;28;20058;-65
2021/05/06 10:39:18;;;;;;;4.32;1.50;;;;;;;;;;5069262;28;20476;-63
2021/05/06 10:41:43;;;;;;;4.32;1.00;;;;;;;;;;5086265;28;20069;-65
2021/05/06 10:44:10;;;;;;;6.72;1.08;;;;;;;;;;5083472;28;20028;-64
2021/05/06 10:47:01;;;;;;;1.63;1.10;;;;;;;;;;5063383;28;20051;-65
2021/05/06 10:49:26;;;;;;;;;;;;;;;;;;5088739;28;20480;-64
2021/05/06 10:52:03;;;;;;;9.63;1.65;;;;;;;;;;5086020;28;19927;-62
2021/05/06 10:54:33;;;;;;;7.35;1.45;;;;;;;;;;5053446;28;20039;-63
2021/05/06 10:57:00;;;;;;;1.88;1.40;;;;;;;;;;5060716;28;20013;-64
2021/05/06 10:59:26;;;;;;;17.85;2.13;;;;;;;;;;5059416;28;20504;-64
2021/05/06 11:01:53;;;;;;;12.10;1.92;;;;;;;;;;5076676;28;20019;-64
2021/05/06 11:04:32;;;;;;;4.35;1.58;;;;;;;;;;5063843;28;20079;-64
2021/05/06 11:07:14;;;;;;;7.18;2.05;;;;;;;;;;5053950;28;20017;-64
2021/05/06 11:09:46;;;;;;;7.25;2.00;;;;;;;;;;5062407;28;20033;-66
2021/05/06 11:12:22;;;;;;;5.60;2.30;;;;;;;;;;5063505;28;20023;-66
2021/05/06 11:14:54;;;;;;;6.10;2.20;;;;;;;;;;5087825;28;20034;-66
2021/05/06 11:17:20;;;;;;;7.88;2.00;;;;;;;;;;5058758;28;20031;-64
2021/05/06 11:19:47;;;;;;;8.02;1.85;;;;;;;;;;5090757;28;20016;-64
2021/05/06 11:22:32;;;;;;;4.72;1.67;;;;;;;;;;5091234;28;20024;-64
2021/05/06 11:24:58;;;;;;;5.53;2.72;;;;;;;;;;5049665;28;20028;-64
2021/05/06 11:27:34;;;;;;;8.27;2.10;;;;;;;;;;5027778;28;20408;-64
2021/05/06 11:30:20;;;;;;;4.47;1.80;;;;;;;;;;5050457;28;20037;-65
2021/05/06 11:32:50;;;;;;;5.70;1.85;;;;;;;;;;5063534;28;20020;-64
2021/05/06 11:35:16;;;;;;;6.20;2.42;;;;;;;;;;5074866;28;20468;-65
2021/05/06 11:37:51;;;;;;;8.60;2.25;;;;;;;;;;5059843;28;20074;-64
2021/05/06 11:40:18;;;;;;;4.60;1.63;;;;;;;;;;5086602;28;20021;-63
2021/05/06 11:42:44;;;;;;;2.65;1.75;;;;;;;;;;5070540;28;20085;-65
2021/05/06 11:45:11;;;;;;;4.45;2.03;;;;;;;;;;5070953;28;20032;-65
2021/05/06 11:47:36;;;;;;;11.32;2.47;;;;;;;;;;5053383;28;20116;-65
2021/05/06 11:50:21;;;;;;;3.78;1.67;;;;;;;;;;5054172;28;20120;-65
2021/05/06 11:52:47;;;;;;;6.38;1.70;;;;;;;;;;5058643;28;20126;-65
2021/05/06 11:55:31;;;;;;;4.25;1.83;;;;;;;;;;5058818;28;20037;-65
2021/05/06 11:57:57;;;;;;;7.82;2.10;;;;;;;;;;5060727;28;20040;-65
2021/05/06 12:00:24;;;;;;;10.05;1.65;;;;;;;;;;5071411;28;20389;-63
2021/05/06 12:03:03;;;;;;;7.43;3.25;;;;;;;;;;5074665;28;20017;-67
2021/05/06 12:05:48;;;;;;;10.75;2.40;;;;;;;;;;5056852;28;20382;-65
2021/05/06 12:08:14;;;;;;;6.95;2.30;;;;;;;;;;5066332;28;20047;-67
2021/05/06 12:10:40;;;;;;;3.17;2.22;;;;;;;;;;5069199;28;20055;-66
2021/05/06 12:13:05;;;;;;;8.77;2.88;;;;;;;;;;5084539;28;20028;-69
2021/05/06 12:15:31;;;;;;;3.20;1.90;;;;;;;;;;5056202;28;20027;-66
2021/05/06 12:18:15;;;;;;;7.35;1.50;;;;;;;;;;5071667;28;20022;-66
2021/05/06 12:20:57;;;;;;;10.73;2.80;;;;;;;;;;5069172;28;20020;-69
2021/05/06 12:23:23;;;;;;;3.85;1.88;;;;;;;;;;5064645;28;20052;-69
2021/05/06 12:25:48;;;;;;;6.10;2.22;;;;;;;;;;5073339;28;20027;-70
2021/05/06 12:28:14;;;;;;;11.98;2.03;;;;;;;;;;5073608;28;20048;-71
2021/05/06 12:30:40;;;;;;;10.70;2.58;;;;;;;;;;5062378;28;20031;-70
2021/05/06 12:33:05;;;;;;;10.50;2.13;;;;;;;;;;5082006;28;20021;-69
2021/05/06 12:35:31;;;;;;;3.83;1.80;;;;;;;;;;5073511;28;20029;-67
2021/05/06 12:37:56;;;;;;;3.50;2.00;;;;;;;;;;5055875;28;20052;-67
2021/05/06 12:40:26;;;;;;;3.47;1.80;;;;;;;;;;5061117;28;20036;-68
2021/05/06 12:42:51;;;;;;;;;;;;;;;;;;5070221;28;20017;-67
2021/05/06 12:45:24;;;;;;;3.50;1.80;;;;;;;;;;5083264;28;19904;-69
2021/05/06 12:47:49;;;;;;;6.97;1.63;;;;;;;;;;5061502;28;20277;-71
2021/05/06 12:50:24;;;;;;;4.13;2.47;;;;;;;;;;5089674;28;20036;-70
2021/05/06 12:52:50;;;;;;;2.72;1.60;;;;;;;;;;5077116;28;20031;-71
2021/05/06 12:55:18;;;;;;;7.78;3.50;;;;;;;;;;5075034;28;20028;-69
2021/05/06 12:57:43;;;;;;;6.38;2.30;;;;;;;;;;5057038;28;20021;-68
2021/05/06 13:00:16;;;;;;;4.35;2.20;;;;;;;;;;5089058;28;20097;-69
2021/05/06 13:02:42;;;;;;;5.40;2.28;;;;;;;;;;5080906;28;20016;-71
2021/05/06 13:05:08;;;;;;;9.82;2.03;;;;;;;;;;5075706;28;20022;-63
2021/05/06 13:07:48;;;;;;;5.32;2.28;;;;;;;;;;5082161;28;20485;-63
2021/05/06 13:10:25;;;;;;;7.38;2.05;;;;;;;;;;5057706;28;20457;-66
2021/05/06 13:16:13;;;;;;;11.43;2.53;;;;;;;;;;5072835;28;20413;-71
2021/05/06 13:18:58;;;;;;;8.40;1.92;;;;;;;;;;5079637;28;20024;-74
2021/05/06 13:21:25;;;;;;;4.25;1.77;;;;;;;;;;5090683;28;20444;-74
2021/05/06 13:23:54;;;;;;;2.92;1.70;;;;;;;;;;5079320;28;20066;-74
2021/05/06 13:26:33;;;;;;;3.35;1.85;;;;;;;;;;5078065;28;20052;-74
2021/05/06 13:28:59;;;;;;;3.58;1.90;;;;;;;;;;5071702;28;20059;-70
2021/05/06 13:31:31;;;;;;;5.95;2.78;;;;;;;;;;5074768;28;20039;-70
2021/05/06 13:34:13;;;;;;;5.22;2.25;;;;;;;;;;5080232;28;20020;-73
2021/05/06 13:36:43;;;;;;;2.25;1.45;;;;;;;;;;5062571;28;20032;-70
2021/05/06 13:39:11;;;;;;;5.95;1.85;;;;;;;;;;5087862;28;20035;-70
2021/05/06 13:41:47;;;;;;;6.18;2.65;;;;;;;;;;5057574;28;20048;-72
2021/05/06 13:44:14;;;;;;;4.07;2.05;;;;;;;;;;5084742;28;20111;-68
2021/05/06 13:46:53;;;;;;;3.90;1.20;;;;;;;;;;5078529;28;20077;-71
2021/05/06 13:49:18;;;;;;;4.63;1.50;;;;;;;;;;5091090;28;20081;-72
2021/05/06 13:51:44;;;;;;;3.10;1.27;;;;;;;;;;5061744;28;20023;-71
2021/05/06 13:54:09;;;;;;;5.65;2.60;;;;;;;;;;5083413;28;20033;-70
2021/05/06 13:56:35;;;;;;;5.53;2.40;;;;;;;;;;5067647;28;20525;-71
2021/05/06 13:59:00;;;;;;;5.03;1.40;;;;;;;;;;5059536;28;20572;-70
2021/05/06 14:01:26;;;;;;;7.47;2.13;;;;;;;;;;5089520;28;20039;-70
2021/05/06 14:03:51;;;;;;;5.10;1.70;;;;;;;;;;5077469;28;20019;-71
2021/05/06 14:06:17;;;;;;;7.75;1.80;;;;;;;;;;5075245;28;20024;-72
2021/05/06 14:08:42;;;;;;;7.32;2.47;;;;;;;;;;5074978;28;20481;-71
2021/05/06 14:11:08;;;;;;;2.97;1.52;;;;;;;;;;5092018;28;20034;-70
2021/05/06 14:13:34;;;;;;;4.72;2.78;;;;;;;;;;5059400;28;20165;-73
2021/05/06 14:16:00;;;;;;;7.85;1.25;;;;;;;;;;5041116;28;20060;-71
2021/05/06 14:18:27;;;;;;;4.35;1.60;;;;;;;;;;5035927;28;20021;-74
2021/05/06 14:20:59;;;;;;;2.38;1.20;;;;;;;;;;5054838;28;20079;-70
2021/05/06 14:23:25;;;;;;;5.03;1.77;;;;;;;;;;5071830;28;20115;-72
2021/05/06 14:25:51;;;;;;;2.72;1.50;;;;;;;;;;5068286;28;20023;-72
2021/05/06 14:28:16;;;;;;;5.20;1.90;;;;;;;;;;5058863;28;20056;-70
2021/05/06 14:30:42;;;;;;;4.03;1.52;;;;;;;;;;5068020;28;20029;-71
2021/05/06 14:33:08;;;;;;;13.57;2.28;;;;;;;;;;5077192;28;20027;-72
2021/05/06 14:35:34;;;;;;;2.70;1.40;;;;;;;;;;5091497;28;20154;-72
2021/05/06 14:38:00;;;;;;;3.17;1.42;;;;;;;;;;5062295;28;20020;-71
2021/05/06 14:40:25;;;;;;;3.92;1.75;;;;;;;;;;5087670;28;20030;-70
2021/05/06 14:42:51;;;;;;;1.92;1.10;;;;;;;;;;5075013;28;20008;-70
2021/05/06 14:45:17;;;;;;;5.10;1.50;;;;;;;;;;5084199;28;20017;-71
2021/05/06 14:47:42;;;;;;;12.90;2.15;;;;;;;;;;5064878;28;20032;-71
2021/05/06 14:50:09;;;;;;;8.52;1.60;;;;;;;;;;5076924;28;20033;-71
2021/05/06 14:52:34;;;;;;;5.95;2.20;;;;;;;;;;5087576;28;20031;-72
2021/05/06 14:55:00;;;;;;;5.20;1.55;;;;;;;;;;5054263;28;20024;-72
2021/05/06 14:57:25;;;;;;;6.25;1.58;;;;;;;;;;5053107;28;20123;-71
2021/05/06 14:59:51;;;;;;;4.72;1.20;;;;;;;;;;5070952;28;20036;-71
2021/05/06 15:02:16;;;;;;;11.00;1.83;;;;;;;;;;5069365;28;20035;-71
2021/05/06 15:04:43;;;;;;;3.63;1.40;;;;;;;;;;5074148;28;20025;-71
2021/05/06 15:07:08;;;;;;;4.47;1.42;;;;;;;;;;5084730;28;20493;-71
2021/05/06 15:09:34;;;;;;;3.83;1.35;;;;;;;;;;5062628;28;20101;-71
2021/05/06 15:12:00;;;;;;;2.05;1.30;;;;;;;;;;5060909;28;20028;-71
2021/05/06 15:14:26;;;;;;;2.05;1.25;;;;;;;;;;5070500;28;20051;-71
2021/05/06 15:16:52;;;;;;;7.55;1.48;;;;;;;;;;5074282;28;20473;-71
2021/05/06 15:19:21;;;;;;;14.40;2.03;;;;;;;;;;5083834;28;20051;-71
2021/05/06 16:34:40;;;;;;;8.55;1.50;;;;;;;;;;5110531;27;20384;-70
2021/05/06 16:40:08;;;;;;;11.07;1.83;;;;;;;;;;5109924;28;20034;-68
2021/05/06 16:45:18;;;;;;;9.23;1.65;;;;;;;;;;5109924;28;20064;-69
2021/05/06 16:47:44;;;;;;;6.15;1.85;;;;;;;;;;5108925;28;20103;-69
2021/05/06 16:50:10;;;;;;;9.93;1.35;;;;;;;;;;5109795;28;20432;-70
2021/05/06 16:52:36;;;;;;;4.50;1.13;;;;;;;;;;5109844;28;20024;-70
2021/05/06 16:55:02;;;;;;;1.73;0.85;;;;;;;;;;5109892;28;20070;-70
2021/05/06 16:57:27;;;;;;;3.88;1.00;;;;;;;;;;5109723;28;20353;-70
2021/05/06 16:59:56;;;;;;;2.28;1.30;;;;;;;;;;5109790;28;20102;-70
2021/05/06 17:02:22;;;;;;;1.17;0.93;;;;;;;;;;5109685;28;20020;-70
2021/05/06 17:04:48;;;;;;;4.05;1.20;;;;;;;;;;5109749;28;20016;-71
2021/05/06 17:07:15;;;;;;;13.60;2.30;;;;;;;;;;5109471;28;20016;-70
2021/05/06 17:09:45;;;;;;;6.43;1.45;;;;;;;;;;5109116;28;20057;-70
2021/05/06 17:12:11;;;;;;;4.70;1.30;;;;;;;;;;5109517;28;20071;-71
2021/05/06 17:14:36;;;;;;;4.85;1.17;;;;;;;;;;5109659;28;20016;-71
2021/05/06 17:17:02;;;;;;;8.02;1.60;;;;;;;;;;5109486;28;20488;-71
2021/05/06 17:19:29;;;;;;;9.63;2.22;;;;;;;;;;5109417;28;20016;-71
2021/05/06 17:21:55;;;;;;;4.50;1.63;;;;;;;;;;5108247;28;20522;-71
2021/05/06 17:24:24;;;;;;;5.65;2.10;;;;;;;;;;5109396;28;20023;-71
2021/05/06 17:26:49;;;;;;;6.40;2.22;;;;;;;;;;5107866;28;20073;-71
2021/05/06 17:29:15;;;;;;;5.15;2.03;;;;;;;;;;5109191;28;20016;-71
2021/05/06 17:31:42;;;;;;;4.90;1.83;;;;;;;;;;5107894;28;20039;-71
2021/05/06 17:34:08;;;;;;;2.80;1.58;;;;;;;;;;5108873;28;20052;-71
2021/05/06 17:36:34;;;;;;;5.75;1.65;;;;;;;;;;5109178;28;20460;-71
2021/05/06 17:39:00;;;;;;;3.25;1.73;;;;;;;;;;5108971;28;20020;-71
2021/05/06 17:41:26;;;;;;;6.38;2.38;;;;;;;;;;5108578;28;20107;-71
2021/05/06 17:43:55;;;;;;;8.00;2.38;;;;;;;;;;5107187;28;20019;-71
2021/05/06 17:46:21;;;;;;;6.45;2.35;;;;;;;;;;5095028;28;20028;-71
2021/05/06 17:48:47;;;;;;;4.85;2.00;;;;;;;;;;5095232;28;20015;-71
2021/05/06 17:51:13;;;;;;;7.07;2.58;;;;;;;;;;5093870;28;20082;-71
2021/05/06 17:53:39;;;;;;;8.07;2.00;;;;;;;;;;5095273;28;20145;-71
2021/05/06 17:56:05;;;;;;;7.70;2.50;;;;;;;;;;5095084;28;20029;-70
2021/05/06 17:58:32;;;;;;;13.68;2.70;;;;;;;;;;5095218;28;20020;-71
2021/05/06 18:00:58;;;;;;;10.13;3.20;;;;;;;;;;5094857;28;20472;-71
2021/05/06 18:03:24;;;;;;;10.73;2.85;;;;;;;;;;5094848;28;20026;-71
2021/05/06 18:05:50;;;;;;;4.32;2.38;;;;;;;;;;5093678;28;20476;-71
2021/05/06 18:08:23;;;;;;;13.32;3.15;;;;;;;;;;5094927;28;20026;-71
2021/05/06 18:10:51;;;;;;;5.35;2.88;;;;;;;;;;5093017;28;20024;-71
2021/05/06 18:13:18;;;;;;;6.72;2.85;;;;;;;;;;5094594;28;20522;-71
2021/05/06 18:15:44;;;;;;;4.78;3.08;;;;;;;;;;5093786;28;20070;-71
2021/05/06 18:18:10;;;;;;;9.77;2.88;;;;;;;;;;5093790;28;20077;-71
2021/05/06 18:20:36;;;;;;;15.15;3.97;;;;;;;;;;5094702;28;20027;-72
2021/05/06 18:23:02;;;;;;;5.75;2.80;;;;;;;;;;5094685;28;20013;-71
2021/05/06 18:25:28;;;;;;;5.93;3.20;;;;;;;;;;5094480;28;20023;-72
2021/05/06 18:27:58;;;;;;;11.82;4.07;;;;;;;;;;5094566;28;20082;-71
2021/05/06 18:30:24;;;;;;;20.73;7.20;;;;;;;;;;5094596;28;20110;-71
2021/05/06 18:32:50;;;;;;;20.77;8.65;;;;;;;;;;5093933;28;20502;-71
2021/05/06 18:35:16;;;;;;;19.48;7.20;;;;;;;;;;5094275;28;20044;-70
2021/05/06 18:37:43;;;;;;;15.73;5.25;;;;;;;;;;5094514;28;20022;-71
2021/05/06 18:40:09;;;;;;;5.40;3.08;;;;;;;;;;5093756;28;20016;-71
2021/05/06 18:42:36;;;;;;;9.13;3.85;;;;;;;;;;5093292;28;20016;-70
2021/05/06 18:45:03;;;;;;;8.77;4.88;;;;;;;;;;5094061;28;20071;-71
2021/05/06 18:47:29;;;;;;;10.20;4.60;;;;;;;;;;5094051;28;20393;-70
2021/05/06 18:49:55;;;;;;;14.48;4.30;;;;;;;;;;5092863;28;20016;-70
2021/05/06 18:52:20;;;;;;;8.07;4.25;;;;;;;;;;5094112;28;20027;-71